sensor_id;sensor_type;location;lat;lon;timestamp;P1;durP1;ratioP1;P2;durP2;ratioP2
38591;SDS011;24356;48.460;11.450;2023-07-31T00:00:30;3.25;;;1.42;;
38591;SDS011;24356;48.460;11.450;2023-07-31T00:02:55;2.58;;;1.40;;
38591;SDS011;24356;48.460;11.450;2023-07-31T00:05:21;2.90;;;1.60;;
38591;SDS011;24356;48.460;11.450;2023-07-31T00:07:47;4.35;;;1.30;;
38591;SDS011;24356;48.460;11.450;2023-07-31T00:10:13;3.65;;;1.60;;
38591;SDS011;24356;48.460;11.450;2023-07-31T00:12:39;4.68;;;1.60;;
38591;SDS011;24356;48.460;11.450;2023-07-31T00:15:07;3.28;;;1.45;;
38591;SDS011;24356;48.460;11.450;2023-07-31T00:17:33;2.30;;;1.45;;
38591;SDS011;24356;48.460;11.450;2023-07-31T00:19:59;5.32;;;1.65;;
38591;SDS011;24356;48.460;11.450;2023-07-31T00:22:25;2.95;;;1.60;;
38591;SDS011;24356;48.460;11.450;2023-07-31T00:24:50;3.92;;;1.67;;
38591;SDS011;24356;48.460;11.450;2023-07-31T00:27:16;2.15;;;1.50;;
38591;SDS011;24356;48.460;11.450;2023-07-31T00:29:42;4.05;;;1.63;;
38591;SDS011;24356;48.460;11.450;2023-07-31T00:32:07;3.95;;;1.60;;
38591;SDS011;24356;48.460;11.450;2023-07-31T00:34:33;4.32;;;1.80;;
38591;SDS011;24356;48.460;11.450;2023-07-31T00:36:58;3.42;;;1.92;;
38591;SDS011;24356;48.460;11.450;2023-07-31T00:39:25;5.57;;;1.80;;
38591;SDS011;24356;48.460;11.450;2023-07-31T00:41:52;4.57;;;1.80;;
38591;SDS011;24356;48.460;11.450;2023-07-31T00:44:19;3.90;;;1.70;;
38591;SDS011;24356;48.460;11.450;2023-07-31T00:46:45;5.13;;;1.80;;
38591;SDS011;24356;48.460;11.450;2023-07-31T00:49:12;5.43;;;1.88;;
38591;SDS011;24356;48.460;11.450;2023-07-31T00:51:38;3.47;;;1.38;;
38591;SDS011;24356;48.460;11.450;2023-07-31T00:54:03;4.68;;;1.77;;
38591;SDS011;24356;48.460;11.450;2023-07-31T00:56:30;6.38;;;1.60;;
38591;SDS011;24356;48.460;11.450;2023-07-31T00:58:56;6.25;;;1.83;;
38591;SDS011;24356;48.460;11.450;2023-07-31T01:01:21;3.75;;;1.60;;
38591;SDS011;24356;48.460;11.450;2023-07-31T01:03:47;4.22;;;1.88;;
38591;SDS011;24356;48.460;11.450;2023-07-31T01:09:11;2.38;;;1.50;;
38591;SDS011;24356;48.460;11.450;2023-07-31T01:12:15;2.85;;;1.60;;
38591;SDS011;24356;48.460;11.450;2023-07-31T01:14:37;4.03;;;1.90;;
38591;SDS011;24356;48.460;11.450;2023-07-31T01:17:03;3.92;;;1.67;;
38591;SDS011;24356;48.460;11.450;2023-07-31T01:19:29;4.88;;;1.70;;
38591;SDS011;24356;48.460;11.450;2023-07-31T01:27:37;4.85;;;1.80;;
38591;SDS011;24356;48.460;11.450;2023-07-31T01:30:15;2.83;;;1.55;;
38591;SDS011;24356;48.460;11.450;2023-07-31T01:32:42;2.72;;;1.67;;
38591;SDS011;24356;48.460;11.450;2023-07-31T01:35:12;4.28;;;1.85;;
38591;SDS011;24356;48.460;11.450;2023-07-31T01:37:38;3.75;;;1.70;;
38591;SDS011;24356;48.460;11.450;2023-07-31T01:40:04;4.07;;;1.45;;
38591;SDS011;24356;48.460;11.450;2023-07-31T01:42:30;4.65;;;1.80;;
38591;SDS011;24356;48.460;11.450;2023-07-31T01:44:55;8.25;;;2.25;;
38591;SDS011;24356;48.460;11.450;2023-07-31T01:47:21;6.85;;;1.90;;
38591;SDS011;24356;48.460;11.450;2023-07-31T01:49:49;2.47;;;1.67;;
38591;SDS011;24356;48.460;11.450;2023-07-31T01:52:14;2.42;;;1.50;;
38591;SDS011;24356;48.460;11.450;2023-07-31T01:54:40;3.22;;;1.80;;
38591;SDS011;24356;48.460;11.450;2023-07-31T01:57:05;3.97;;;1.52;;
38591;SDS011;24356;48.460;11.450;2023-07-31T01:59:31;3.90;;;1.70;;
38591;SDS011;24356;48.460;11.450;2023-07-31T02:01:57;2.88;;;1.90;;
38591;SDS011;24356;48.460;11.450;2023-07-31T02:04:22;5.93;;;1.92;;
38591;SDS011;24356;48.460;11.450;2023-07-31T02:06:49;3.58;;;1.80;;
38591;SDS011;24356;48.460;11.450;2023-07-31T02:09:15;4.55;;;1.70;;
38591;SDS011;24356;48.460;11.450;2023-07-31T02:11:40;3.78;;;1.73;;
38591;SDS011;24356;48.460;11.450;2023-07-31T02:14:06;3.25;;;1.77;;
38591;SDS011;24356;48.460;11.450;2023-07-31T02:16:32;4.65;;;1.80;;
38591;SDS011;24356;48.460;11.450;2023-07-31T02:18:57;7.68;;;2.45;;
38591;SDS011;24356;48.460;11.450;2023-07-31T02:21:23;5.93;;;1.90;;
38591;SDS011;24356;48.460;11.450;2023-07-31T02:23:48;4.55;;;2.00;;
38591;SDS011;24356;48.460;11.450;2023-07-31T02:26:14;3.90;;;1.77;;
38591;SDS011;24356;48.460;11.450;2023-07-31T02:28:39;4.80;;;1.85;;
38591;SDS011;24356;48.460;11.450;2023-07-31T02:31:07;2.72;;;1.73;;
38591;SDS011;24356;48.460;11.450;2023-07-31T02:33:35;4.15;;;1.67;;
38591;SDS011;24356;48.460;11.450;2023-07-31T02:36:00;5.70;;;1.92;;
38591;SDS011;24356;48.460;11.450;2023-07-31T02:38:26;3.08;;;1.73;;
38591;SDS011;24356;48.460;11.450;2023-07-31T02:40:51;3.78;;;2.00;;
38591;SDS011;24356;48.460;11.450;2023-07-31T02:43:17;2.67;;;1.70;;
38591;SDS011;24356;48.460;11.450;2023-07-31T02:45:43;2.85;;;1.63;;
38591;SDS011;24356;48.460;11.450;2023-07-31T02:48:08;3.25;;;1.70;;
38591;SDS011;24356;48.460;11.450;2023-07-31T02:50:34;2.70;;;1.80;;
38591;SDS011;24356;48.460;11.450;2023-07-31T02:53:00;4.22;;;1.85;;
38591;SDS011;24356;48.460;11.450;2023-07-31T02:55:25;3.40;;;1.70;;
38591;SDS011;24356;48.460;11.450;2023-07-31T02:57:51;2.28;;;1.80;;
38591;SDS011;24356;48.460;11.450;2023-07-31T03:00:17;3.15;;;1.70;;
38591;SDS011;24356;48.460;11.450;2023-07-31T03:02:43;3.55;;;1.95;;
38591;SDS011;24356;48.460;11.450;2023-07-31T03:05:08;3.03;;;1.73;;
38591;SDS011;24356;48.460;11.450;2023-07-31T03:07:34;2.83;;;1.80;;
38591;SDS011;24356;48.460;11.450;2023-07-31T03:10:00;7.07;;;1.95;;
38591;SDS011;24356;48.460;11.450;2023-07-31T03:12:26;2.47;;;1.63;;
38591;SDS011;24356;48.460;11.450;2023-07-31T03:14:52;5.18;;;1.50;;
38591;SDS011;24356;48.460;11.450;2023-07-31T03:17:17;4.82;;;2.00;;
38591;SDS011;24356;48.460;11.450;2023-07-31T03:19:43;5.43;;;2.17;;
38591;SDS011;24356;48.460;11.450;2023-07-31T03:22:08;3.80;;;1.80;;
38591;SDS011;24356;48.460;11.450;2023-07-31T03:24:34;2.67;;;1.90;;
38591;SDS011;24356;48.460;11.450;2023-07-31T03:27:00;4.82;;;1.77;;
38591;SDS011;24356;48.460;11.450;2023-07-31T03:29:26;3.22;;;2.05;;
38591;SDS011;24356;48.460;11.450;2023-07-31T03:31:52;2.13;;;1.80;;
38591;SDS011;24356;48.460;11.450;2023-07-31T03:34:17;2.78;;;1.80;;
38591;SDS011;24356;48.460;11.450;2023-07-31T03:36:43;2.65;;;1.85;;
38591;SDS011;24356;48.460;11.450;2023-07-31T03:39:09;2.88;;;1.70;;
38591;SDS011;24356;48.460;11.450;2023-07-31T03:41:35;2.20;;;1.60;;
38591;SDS011;24356;48.460;11.450;2023-07-31T03:44:00;4.95;;;2.00;;
38591;SDS011;24356;48.460;11.450;2023-07-31T03:46:26;3.05;;;2.00;;
38591;SDS011;24356;48.460;11.450;2023-07-31T03:48:51;5.47;;;2.00;;
38591;SDS011;24356;48.460;11.450;2023-07-31T03:51:17;2.90;;;1.70;;
38591;SDS011;24356;48.460;11.450;2023-07-31T03:53:43;3.13;;;1.70;;
38591;SDS011;24356;48.460;11.450;2023-07-31T03:56:09;3.72;;;1.85;;
38591;SDS011;24356;48.460;11.450;2023-07-31T03:58:35;4.40;;;2.00;;
38591;SDS011;24356;48.460;11.450;2023-07-31T04:01:01;4.45;;;2.00;;
38591;SDS011;24356;48.460;11.450;2023-07-31T04:03:27;2.85;;;1.83;;
38591;SDS011;24356;48.460;11.450;2023-07-31T04:05:54;4.13;;;1.70;;
38591;SDS011;24356;48.460;11.450;2023-07-31T04:08:21;4.35;;;2.20;;
38591;SDS011;24356;48.460;11.450;2023-07-31T04:10:47;3.85;;;1.90;;
38591;SDS011;24356;48.460;11.450;2023-07-31T04:13:13;6.03;;;1.77;;
38591;SDS011;24356;48.460;11.450;2023-07-31T04:15:40;3.33;;;1.80;;
38591;SDS011;24356;48.460;11.450;2023-07-31T04:18:06;4.97;;;2.20;;
38591;SDS011;24356;48.460;11.450;2023-07-31T04:20:31;2.88;;;1.77;;
38591;SDS011;24356;48.460;11.450;2023-07-31T04:22:57;3.80;;;2.05;;
38591;SDS011;24356;48.460;11.450;2023-07-31T04:25:23;5.97;;;1.90;;
38591;SDS011;24356;48.460;11.450;2023-07-31T04:27:48;3.78;;;2.00;;
38591;SDS011;24356;48.460;11.450;2023-07-31T04:30:15;4.75;;;2.10;;
38591;SDS011;24356;48.460;11.450;2023-07-31T04:32:41;3.38;;;1.98;;
38591;SDS011;24356;48.460;11.450;2023-07-31T04:35:06;3.17;;;2.10;;
38591;SDS011;24356;48.460;11.450;2023-07-31T04:37:32;3.85;;;1.92;;
38591;SDS011;24356;48.460;11.450;2023-07-31T04:39:58;10.02;;;2.05;;
38591;SDS011;24356;48.460;11.450;2023-07-31T04:42:23;2.80;;;2.15;;
38591;SDS011;24356;48.460;11.450;2023-07-31T04:44:49;3.13;;;2.10;;
38591;SDS011;24356;48.460;11.450;2023-07-31T04:47:18;4.63;;;2.20;;
38591;SDS011;24356;48.460;11.450;2023-07-31T04:49:43;4.05;;;2.50;;
38591;SDS011;24356;48.460;11.450;2023-07-31T04:52:09;4.05;;;2.28;;
38591;SDS011;24356;48.460;11.450;2023-07-31T04:54:34;6.80;;;2.10;;
38591;SDS011;24356;48.460;11.450;2023-07-31T04:57:01;7.38;;;2.63;;
38591;SDS011;24356;48.460;11.450;2023-07-31T04:59:27;4.28;;;2.08;;
38591;SDS011;24356;48.460;11.450;2023-07-31T05:01:54;5.57;;;2.78;;
38591;SDS011;24356;48.460;11.450;2023-07-31T05:04:20;7.80;;;2.88;;
38591;SDS011;24356;48.460;11.450;2023-07-31T05:06:45;3.72;;;2.30;;
38591;SDS011;24356;48.460;11.450;2023-07-31T05:09:11;5.53;;;2.97;;
38591;SDS011;24356;48.460;11.450;2023-07-31T05:11:36;6.43;;;2.95;;
38591;SDS011;24356;48.460;11.450;2023-07-31T05:14:02;5.90;;;3.20;;
38591;SDS011;24356;48.460;11.450;2023-07-31T05:16:30;6.15;;;3.20;;
38591;SDS011;24356;48.460;11.450;2023-07-31T05:18:55;10.30;;;3.20;;
38591;SDS011;24356;48.460;11.450;2023-07-31T05:21:21;5.75;;;2.95;;
38591;SDS011;24356;48.460;11.450;2023-07-31T05:23:47;4.75;;;2.60;;
38591;SDS011;24356;48.460;11.450;2023-07-31T05:26:13;4.22;;;2.45;;
38591;SDS011;24356;48.460;11.450;2023-07-31T05:28:38;5.82;;;2.50;;
38591;SDS011;24356;48.460;11.450;2023-07-31T05:31:04;7.35;;;2.90;;
38591;SDS011;24356;48.460;11.450;2023-07-31T05:33:30;6.90;;;3.00;;
38591;SDS011;24356;48.460;11.450;2023-07-31T05:35:58;3.75;;;2.60;;
38591;SDS011;24356;48.460;11.450;2023-07-31T05:38:24;10.32;;;2.88;;
38591;SDS011;24356;48.460;11.450;2023-07-31T05:40:51;5.15;;;2.78;;
38591;SDS011;24356;48.460;11.450;2023-07-31T05:43:17;3.85;;;2.55;;
38591;SDS011;24356;48.460;11.450;2023-07-31T05:45:42;8.52;;;2.83;;
38591;SDS011;24356;48.460;11.450;2023-07-31T05:48:08;8.35;;;3.05;;
38591;SDS011;24356;48.460;11.450;2023-07-31T05:50:34;5.20;;;2.90;;
38591;SDS011;24356;48.460;11.450;2023-07-31T05:53:02;10.20;;;4.00;;
38591;SDS011;24356;48.460;11.450;2023-07-31T05:55:28;4.53;;;2.72;;
38591;SDS011;24356;48.460;11.450;2023-07-31T05:57:54;4.03;;;2.50;;
38591;SDS011;24356;48.460;11.450;2023-07-31T06:00:20;3.95;;;2.83;;
38591;SDS011;24356;48.460;11.450;2023-07-31T06:02:47;5.70;;;2.50;;
38591;SDS011;24356;48.460;11.450;2023-07-31T06:05:13;5.45;;;3.70;;
38591;SDS011;24356;48.460;11.450;2023-07-31T06:07:38;5.03;;;2.70;;
38591;SDS011;24356;48.460;11.450;2023-07-31T06:10:04;7.63;;;2.90;;
38591;SDS011;24356;48.460;11.450;2023-07-31T06:12:33;8.40;;;3.20;;
38591;SDS011;24356;48.460;11.450;2023-07-31T06:14:59;5.45;;;2.58;;
38591;SDS011;24356;48.460;11.450;2023-07-31T06:17:25;5.05;;;2.33;;
38591;SDS011;24356;48.460;11.450;2023-07-31T06:19:51;4.97;;;2.65;;
38591;SDS011;24356;48.460;11.450;2023-07-31T06:22:17;8.15;;;2.88;;
38591;SDS011;24356;48.460;11.450;2023-07-31T06:24:43;5.60;;;2.45;;
38591;SDS011;24356;48.460;11.450;2023-07-31T06:27:08;8.27;;;2.60;;
38591;SDS011;24356;48.460;11.450;2023-07-31T06:29:34;6.97;;;2.80;;
38591;SDS011;24356;48.460;11.450;2023-07-31T06:32:00;5.13;;;3.00;;
38591;SDS011;24356;48.460;11.450;2023-07-31T06:34:25;3.67;;;2.25;;
38591;SDS011;24356;48.460;11.450;2023-07-31T06:36:51;6.07;;;2.10;;
38591;SDS011;24356;48.460;11.450;2023-07-31T06:39:16;4.88;;;2.53;;
38591;SDS011;24356;48.460;11.450;2023-07-31T06:41:44;3.45;;;2.30;;
38591;SDS011;24356;48.460;11.450;2023-07-31T06:44:10;5.13;;;2.45;;
38591;SDS011;24356;48.460;11.450;2023-07-31T06:46:36;3.83;;;2.85;;
38591;SDS011;24356;48.460;11.450;2023-07-31T06:49:01;5.25;;;3.28;;
38591;SDS011;24356;48.460;11.450;2023-07-31T06:51:27;7.82;;;2.90;;
38591;SDS011;24356;48.460;11.450;2023-07-31T06:53:52;6.75;;;2.53;;
38591;SDS011;24356;48.460;11.450;2023-07-31T06:56:18;5.07;;;2.63;;
38591;SDS011;24356;48.460;11.450;2023-07-31T06:58:44;7.18;;;2.55;;
38591;SDS011;24356;48.460;11.450;2023-07-31T07:01:09;5.03;;;2.85;;
38591;SDS011;24356;48.460;11.450;2023-07-31T07:03:35;5.13;;;2.55;;
38591;SDS011;24356;48.460;11.450;2023-07-31T07:06:00;5.75;;;2.33;;
38591;SDS011;24356;48.460;11.450;2023-07-31T07:08:26;2.93;;;2.20;;
38591;SDS011;24356;48.460;11.450;2023-07-31T07:10:52;3.92;;;2.13;;
38591;SDS011;24356;48.460;11.450;2023-07-31T07:13:17;6.22;;;2.63;;
38591;SDS011;24356;48.460;11.450;2023-07-31T07:15:49;5.45;;;2.75;;
38591;SDS011;24356;48.460;11.450;2023-07-31T07:18:15;5.95;;;2.20;;
38591;SDS011;24356;48.460;11.450;2023-07-31T07:20:49;4.20;;;2.30;;
38591;SDS011;24356;48.460;11.450;2023-07-31T07:23:16;4.75;;;2.08;;
38591;SDS011;24356;48.460;11.450;2023-07-31T07:25:42;4.18;;;2.03;;
38591;SDS011;24356;48.460;11.450;2023-07-31T07:28:08;2.90;;;2.05;;
38591;SDS011;24356;48.460;11.450;2023-07-31T07:30:34;6.15;;;2.40;;
38591;SDS011;24356;48.460;11.450;2023-07-31T07:33:01;4.78;;;2.28;;
38591;SDS011;24356;48.460;11.450;2023-07-31T07:35:27;5.72;;;2.10;;
38591;SDS011;24356;48.460;11.450;2023-07-31T07:37:53;4.32;;;2.13;;
38591;SDS011;24356;48.460;11.450;2023-07-31T07:40:19;7.90;;;2.67;;
38591;SDS011;24356;48.460;11.450;2023-07-31T07:42:45;9.13;;;2.10;;
38591;SDS011;24356;48.460;11.450;2023-07-31T07:45:10;5.85;;;1.95;;
38591;SDS011;24356;48.460;11.450;2023-07-31T07:47:36;6.63;;;2.00;;
38591;SDS011;24356;48.460;11.450;2023-07-31T07:50:03;3.85;;;1.90;;
38591;SDS011;24356;48.460;11.450;2023-07-31T07:52:28;3.72;;;1.80;;
38591;SDS011;24356;48.460;11.450;2023-07-31T07:54:54;3.92;;;1.90;;
38591;SDS011;24356;48.460;11.450;2023-07-31T07:57:20;7.10;;;2.25;;
38591;SDS011;24356;48.460;11.450;2023-07-31T07:59:46;3.80;;;1.70;;
38591;SDS011;24356;48.460;11.450;2023-07-31T08:02:11;4.38;;;1.85;;
38591;SDS011;24356;48.460;11.450;2023-07-31T08:04:37;4.95;;;1.90;;
38591;SDS011;24356;48.460;11.450;2023-07-31T08:07:02;4.53;;;1.63;;
38591;SDS011;24356;48.460;11.450;2023-07-31T08:09:28;3.53;;;1.98;;
38591;SDS011;24356;48.460;11.450;2023-07-31T08:11:54;4.50;;;1.85;;
38591;SDS011;24356;48.460;11.450;2023-07-31T08:14:22;4.53;;;1.90;;
38591;SDS011;24356;48.460;11.450;2023-07-31T08:16:48;4.43;;;1.80;;
38591;SDS011;24356;48.460;11.450;2023-07-31T08:19:13;4.65;;;1.80;;
38591;SDS011;24356;48.460;11.450;2023-07-31T08:21:39;5.55;;;2.03;;
38591;SDS011;24356;48.460;11.450;2023-07-31T08:24:05;3.97;;;2.08;;
38591;SDS011;24356;48.460;11.450;2023-07-31T08:26:30;3.50;;;1.70;;
38591;SDS011;24356;48.460;11.450;2023-07-31T08:28:56;3.25;;;1.42;;
38591;SDS011;24356;48.460;11.450;2023-07-31T08:31:22;5.55;;;2.20;;
38591;SDS011;24356;48.460;11.450;2023-07-31T08:33:48;7.10;;;1.98;;
38591;SDS011;24356;48.460;11.450;2023-07-31T08:36:13;4.13;;;1.73;;
38591;SDS011;24356;48.460;11.450;2023-07-31T08:38:39;3.20;;;1.52;;
38591;SDS011;24356;48.460;11.450;2023-07-31T08:41:05;8.90;;;2.22;;
38591;SDS011;24356;48.460;11.450;2023-07-31T08:43:30;4.28;;;1.80;;
38591;SDS011;24356;48.460;11.450;2023-07-31T08:45:57;2.88;;;1.75;;
38591;SDS011;24356;48.460;11.450;2023-07-31T08:48:23;6.65;;;1.80;;
38591;SDS011;24356;48.460;11.450;2023-07-31T08:50:49;8.82;;;2.30;;
38591;SDS011;24356;48.460;11.450;2023-07-31T08:53:16;4.68;;;1.80;;
38591;SDS011;24356;48.460;11.450;2023-07-31T08:55:42;3.00;;;1.40;;
38591;SDS011;24356;48.460;11.450;2023-07-31T08:58:09;4.85;;;1.50;;
38591;SDS011;24356;48.460;11.450;2023-07-31T09:00:37;7.03;;;3.40;;
38591;SDS011;24356;48.460;11.450;2023-07-31T09:03:19;4.95;;;1.60;;
38591;SDS011;24356;48.460;11.450;2023-07-31T09:05:48;7.35;;;2.40;;
38591;SDS011;24356;48.460;11.450;2023-07-31T09:08:18;5.72;;;2.10;;
38591;SDS011;24356;48.460;11.450;2023-07-31T09:10:45;5.18;;;1.67;;
38591;SDS011;24356;48.460;11.450;2023-07-31T09:13:13;5.50;;;1.80;;
38591;SDS011;24356;48.460;11.450;2023-07-31T09:15:40;4.57;;;1.70;;
38591;SDS011;24356;48.460;11.450;2023-07-31T09:18:08;5.90;;;1.63;;
38591;SDS011;24356;48.460;11.450;2023-07-31T09:20:34;4.47;;;1.70;;
38591;SDS011;24356;48.460;11.450;2023-07-31T09:23:07;7.93;;;1.60;;
38591;SDS011;24356;48.460;11.450;2023-07-31T09:25:34;4.57;;;1.75;;
38591;SDS011;24356;48.460;11.450;2023-07-31T09:28:04;4.22;;;1.50;;
38591;SDS011;24356;48.460;11.450;2023-07-31T09:30:48;4.70;;;1.52;;
38591;SDS011;24356;48.460;11.450;2023-07-31T09:33:15;3.35;;;1.85;;
38591;SDS011;24356;48.460;11.450;2023-07-31T09:35:43;4.80;;;1.60;;
38591;SDS011;24356;48.460;11.450;2023-07-31T09:38:10;3.42;;;1.45;;
38591;SDS011;24356;48.460;11.450;2023-07-31T09:40:40;6.78;;;1.60;;
38591;SDS011;24356;48.460;11.450;2023-07-31T09:43:07;7.15;;;1.70;;
38591;SDS011;24356;48.460;11.450;2023-07-31T09:45:36;8.65;;;1.60;;
38591;SDS011;24356;48.460;11.450;2023-07-31T09:48:03;3.33;;;1.55;;
38591;SDS011;24356;48.460;11.450;2023-07-31T09:50:31;4.60;;;1.73;;
38591;SDS011;24356;48.460;11.450;2023-07-31T09:52:57;3.50;;;1.40;;
38591;SDS011;24356;48.460;11.450;2023-07-31T09:55:23;5.32;;;1.70;;
38591;SDS011;24356;48.460;11.450;2023-07-31T09:57:49;3.72;;;1.50;;
38591;SDS011;24356;48.460;11.450;2023-07-31T10:00:18;8.52;;;1.77;;
38591;SDS011;24356;48.460;11.450;2023-07-31T10:02:45;3.08;;;1.50;;
38591;SDS011;24356;48.460;11.450;2023-07-31T10:05:12;6.78;;;1.48;;
38591;SDS011;24356;48.460;11.450;2023-07-31T10:07:40;3.25;;;1.50;;
38591;SDS011;24356;48.460;11.450;2023-07-31T10:10:19;5.57;;;1.85;;
38591;SDS011;24356;48.460;11.450;2023-07-31T10:12:46;4.25;;;1.70;;
38591;SDS011;24356;48.460;11.450;2023-07-31T10:15:36;5.28;;;1.80;;
38591;SDS011;24356;48.460;11.450;2023-07-31T10:18:02;3.30;;;1.60;;
38591;SDS011;24356;48.460;11.450;2023-07-31T10:20:30;5.25;;;1.83;;
38591;SDS011;24356;48.460;11.450;2023-07-31T10:22:57;4.57;;;1.70;;
38591;SDS011;24356;48.460;11.450;2023-07-31T10:25:24;4.72;;;1.70;;
38591;SDS011;24356;48.460;11.450;2023-07-31T10:27:51;5.28;;;1.90;;
38591;SDS011;24356;48.460;11.450;2023-07-31T10:30:20;3.58;;;1.60;;
38591;SDS011;24356;48.460;11.450;2023-07-31T10:32:47;4.47;;;1.73;;
38591;SDS011;24356;48.460;11.450;2023-07-31T10:35:15;7.45;;;1.98;;
38591;SDS011;24356;48.460;11.450;2023-07-31T10:37:42;4.78;;;1.60;;
38591;SDS011;24356;48.460;11.450;2023-07-31T10:40:16;4.03;;;1.73;;
38591;SDS011;24356;48.460;11.450;2023-07-31T10:42:51;5.22;;;1.80;;
38591;SDS011;24356;48.460;11.450;2023-07-31T10:50:33;4.10;;;1.70;;
38591;SDS011;24356;48.460;11.450;2023-07-31T10:53:02;2.97;;;1.58;;
38591;SDS011;24356;48.460;11.450;2023-07-31T11:00:32;6.50;;;1.73;;
38591;SDS011;24356;48.460;11.450;2023-07-31T11:10:48;3.45;;;1.50;;
38591;SDS011;24356;48.460;11.450;2023-07-31T11:13:26;2.70;;;1.50;;
38591;SDS011;24356;48.460;11.450;2023-07-31T11:15:55;4.40;;;1.48;;
38591;SDS011;24356;48.460;11.450;2023-07-31T11:18:21;3.90;;;1.90;;
38591;SDS011;24356;48.460;11.450;2023-07-31T11:20:47;4.15;;;1.60;;
38591;SDS011;24356;48.460;11.450;2023-07-31T11:23:12;3.85;;;1.60;;
38591;SDS011;24356;48.460;11.450;2023-07-31T11:25:40;3.95;;;1.60;;
38591;SDS011;24356;48.460;11.450;2023-07-31T11:28:08;9.20;;;1.67;;
38591;SDS011;24356;48.460;11.450;2023-07-31T11:30:36;4.45;;;1.75;;
38591;SDS011;24356;48.460;11.450;2023-07-31T11:33:03;3.85;;;1.50;;
38591;SDS011;24356;48.460;11.450;2023-07-31T11:35:34;3.78;;;1.50;;
38591;SDS011;24356;48.460;11.450;2023-07-31T11:38:01;3.13;;;1.50;;
38591;SDS011;24356;48.460;11.450;2023-07-31T11:40:29;2.45;;;1.50;;
38591;SDS011;24356;48.460;11.450;2023-07-31T11:42:55;5.00;;;1.83;;
38591;SDS011;24356;48.460;11.450;2023-07-31T11:45:24;6.72;;;1.75;;
38591;SDS011;24356;48.460;11.450;2023-07-31T11:47:50;4.82;;;1.63;;
38591;SDS011;24356;48.460;11.450;2023-07-31T11:50:16;3.95;;;1.42;;
38591;SDS011;24356;48.460;11.450;2023-07-31T11:52:42;5.15;;;1.70;;
38591;SDS011;24356;48.460;11.450;2023-07-31T11:55:11;3.45;;;1.60;;
38591;SDS011;24356;48.460;11.450;2023-07-31T11:57:38;4.75;;;1.80;;
38591;SDS011;24356;48.460;11.450;2023-07-31T12:00:07;5.82;;;1.58;;
38591;SDS011;24356;48.460;11.450;2023-07-31T12:02:36;3.97;;;1.52;;
38591;SDS011;24356;48.460;11.450;2023-07-31T12:05:02;3.65;;;1.75;;
38591;SDS011;24356;48.460;11.450;2023-07-31T12:07:42;4.88;;;1.50;;
38591;SDS011;24356;48.460;11.450;2023-07-31T12:10:22;3.85;;;1.38;;
38591;SDS011;24356;48.460;11.450;2023-07-31T12:13:07;6.00;;;1.55;;
38591;SDS011;24356;48.460;11.450;2023-07-31T12:15:42;3.53;;;1.45;;
38591;SDS011;24356;48.460;11.450;2023-07-31T12:18:10;3.47;;;1.58;;
38591;SDS011;24356;48.460;11.450;2023-07-31T12:20:43;4.75;;;1.80;;
38591;SDS011;24356;48.460;11.450;2023-07-31T12:26:09;3.08;;;1.50;;
38591;SDS011;24356;48.460;11.450;2023-07-31T12:28:37;4.35;;;1.70;;
38591;SDS011;24356;48.460;11.450;2023-07-31T12:31:05;3.63;;;1.40;;
38591;SDS011;24356;48.460;11.450;2023-07-31T12:33:34;2.08;;;1.33;;
38591;SDS011;24356;48.460;11.450;2023-07-31T12:36:01;4.22;;;1.42;;
38591;SDS011;24356;48.460;11.450;2023-07-31T12:38:28;4.25;;;1.40;;
38591;SDS011;24356;48.460;11.450;2023-07-31T12:40:55;5.32;;;1.80;;
38591;SDS011;24356;48.460;11.450;2023-07-31T12:43:20;2.90;;;1.75;;
38591;SDS011;24356;48.460;11.450;2023-07-31T12:45:46;3.30;;;1.70;;
38591;SDS011;24356;48.460;11.450;2023-07-31T12:48:12;4.97;;;1.50;;
38591;SDS011;24356;48.460;11.450;2023-07-31T12:50:39;3.10;;;1.75;;
38591;SDS011;24356;48.460;11.450;2023-07-31T12:53:04;3.58;;;1.63;;
38591;SDS011;24356;48.460;11.450;2023-07-31T12:55:30;3.35;;;1.45;;
38591;SDS011;24356;48.460;11.450;2023-07-31T12:57:57;2.55;;;1.60;;
38591;SDS011;24356;48.460;11.450;2023-07-31T13:00:23;4.35;;;1.90;;
38591;SDS011;24356;48.460;11.450;2023-07-31T13:02:49;3.60;;;1.58;;
38591;SDS011;24356;48.460;11.450;2023-07-31T13:05:14;2.75;;;1.58;;
38591;SDS011;24356;48.460;11.450;2023-07-31T13:07:40;3.63;;;1.50;;
38591;SDS011;24356;48.460;11.450;2023-07-31T13:10:07;3.83;;;1.52;;
38591;SDS011;24356;48.460;11.450;2023-07-31T13:12:33;4.00;;;1.63;;
38591;SDS011;24356;48.460;11.450;2023-07-31T13:14:59;5.47;;;1.45;;
38591;SDS011;24356;48.460;11.450;2023-07-31T13:17:25;2.30;;;1.50;;
38591;SDS011;24356;48.460;11.450;2023-07-31T13:19:52;3.28;;;1.40;;
38591;SDS011;24356;48.460;11.450;2023-07-31T13:22:17;3.95;;;1.70;;
38591;SDS011;24356;48.460;11.450;2023-07-31T13:24:43;3.40;;;1.63;;
38591;SDS011;24356;48.460;11.450;2023-07-31T13:27:08;2.47;;;1.50;;
38591;SDS011;24356;48.460;11.450;2023-07-31T13:29:34;3.22;;;1.58;;
38591;SDS011;24356;48.460;11.450;2023-07-31T13:32:00;2.78;;;1.55;;
38591;SDS011;24356;48.460;11.450;2023-07-31T13:34:25;3.55;;;1.40;;
38591;SDS011;24356;48.460;11.450;2023-07-31T13:36:51;3.78;;;1.80;;
38591;SDS011;24356;48.460;11.450;2023-07-31T13:39:16;5.10;;;1.45;;
38591;SDS011;24356;48.460;11.450;2023-07-31T13:41:42;2.80;;;1.65;;
38591;SDS011;24356;48.460;11.450;2023-07-31T13:44:09;2.75;;;1.40;;
38591;SDS011;24356;48.460;11.450;2023-07-31T13:46:34;2.55;;;1.50;;
38591;SDS011;24356;48.460;11.450;2023-07-31T13:49:00;3.63;;;1.67;;
38591;SDS011;24356;48.460;11.450;2023-07-31T13:51:26;4.00;;;1.60;;
38591;SDS011;24356;48.460;11.450;2023-07-31T13:53:52;3.47;;;1.50;;
38591;SDS011;24356;48.460;11.450;2023-07-31T13:56:18;2.55;;;1.77;;
38591;SDS011;24356;48.460;11.450;2023-07-31T13:58:44;3.28;;;1.75;;
38591;SDS011;24356;48.460;11.450;2023-07-31T14:01:09;5.25;;;1.70;;
38591;SDS011;24356;48.460;11.450;2023-07-31T14:03:35;4.53;;;1.70;;
38591;SDS011;24356;48.460;11.450;2023-07-31T14:06:01;2.67;;;1.58;;
38591;SDS011;24356;48.460;11.450;2023-07-31T14:08:26;2.90;;;1.80;;
38591;SDS011;24356;48.460;11.450;2023-07-31T14:10:52;4.25;;;1.70;;
38591;SDS011;24356;48.460;11.450;2023-07-31T14:13:19;6.20;;;1.85;;
38591;SDS011;24356;48.460;11.450;2023-07-31T14:15:44;4.38;;;2.00;;
38591;SDS011;24356;48.460;11.450;2023-07-31T14:18:10;2.03;;;1.60;;
38591;SDS011;24356;48.460;11.450;2023-07-31T14:20:35;5.15;;;1.77;;
38591;SDS011;24356;48.460;11.450;2023-07-31T14:23:04;3.42;;;1.73;;
38591;SDS011;24356;48.460;11.450;2023-07-31T14:25:30;3.42;;;1.90;;
38591;SDS011;24356;48.460;11.450;2023-07-31T14:27:55;2.97;;;1.85;;
38591;SDS011;24356;48.460;11.450;2023-07-31T14:30:21;5.57;;;2.17;;
38591;SDS011;24356;48.460;11.450;2023-07-31T14:32:46;4.57;;;2.00;;
38591;SDS011;24356;48.460;11.450;2023-07-31T14:35:12;3.50;;;1.90;;
38591;SDS011;24356;48.460;11.450;2023-07-31T14:37:39;2.85;;;1.67;;
38591;SDS011;24356;48.460;11.450;2023-07-31T14:40:06;5.13;;;2.00;;
38591;SDS011;24356;48.460;11.450;2023-07-31T14:42:34;2.65;;;1.73;;
38591;SDS011;24356;48.460;11.450;2023-07-31T14:45:00;4.85;;;1.80;;
38591;SDS011;24356;48.460;11.450;2023-07-31T14:47:27;3.95;;;1.90;;
38591;SDS011;24356;48.460;11.450;2023-07-31T14:49:52;4.85;;;1.90;;
38591;SDS011;24356;48.460;11.450;2023-07-31T14:52:19;4.93;;;2.17;;
38591;SDS011;24356;48.460;11.450;2023-07-31T14:54:45;2.25;;;1.85;;
38591;SDS011;24356;48.460;11.450;2023-07-31T14:57:10;6.10;;;2.70;;
38591;SDS011;24356;48.460;11.450;2023-07-31T14:59:36;3.35;;;1.90;;